AirNav   Pilot Hours Calculator
 
 506 users online  

5MS2 Turkey Bayou Airpark
Lakeshore, Mississippi, USA

GOING TO LAKESHORE?


FAA INFORMATION EFFECTIVE 25 MARCH 2021

Location

FAA Identifier: 5MS2
Lat/Long: 30-15-02.9000N 089-27-03.6000W
30-15.048333N 089-27.060000W
30.2508056,-89.4510000
(estimated)
Elevation: 9 ft. / 3 m (estimated)
Variation: 01E ()
From city: 2 miles SW of LAKESHORE, MS
Time zone: UTC -5 (UTC -6 during Standard Time)
Zip code: 39520

Airport Operations

Airport use: Private use. Permission required prior to landing
Activation date: 07/1999
Control tower: no
ARTCC: HOUSTON CENTER
FSS: GREENWOOD FLIGHT SERVICE STATION
Attendance: UNATNDD
Wind indicator: yes
Segmented circle: no

Airport Communications

WX AWOS-3PT at HSA (7 nm N): 118.375 (228-466-9320)
WX AWOS-3PT at MJD (18 nm NW): 119.075 (601 798 4136)
WX ASOS at ASD (20 nm W): 132.475 (985-643-7263)

Nearby radio navigation aids

VOR radial/distance  VOR name  Freq  Var
GPTr242/21.5GULFPORT VORTAC109.0002E
PCUr137/23.6PICAYUNE VOR/DME114.1505E
HRVr048/37.4HARVEY VORTAC114.1002E

 
NDB name  Hdg/Dist  Freq  Var  ID
HANCO181/12.022102WHS .... ...

Airport Services

Runway Information

Runway 9/27

Dimensions: 2000 x 20 ft. / 610 x 6 m
RWY 09/27 1300 FT CONC ON RWY 27 END, REMAINDER TURF.
Surface: concrete/turf
RUNWAY 9  RUNWAY 27
Traffic pattern: leftleft
Obstructions: noneroad

Airport Ownership and Management from official FAA records

Ownership: Privately-owned
Owner: TURKEY BAYOU PILOTS ASSN
2606 KELLY AVE
GULFPORT, MS 39501
Phone 228-868-7694
Manager: JOHN S. SCHNELLER, III
87 FLAMINGO ST.
NEW ORLEANS, LA 70124-4315
Phone 504-283-8443

Airport Operational Statistics

Aircraft based on the field: 4
Single engine airplanes: 4
    

Additional Remarks

DIRT ROAD, POWER LINES & SUPPORTING POLES, PINE TREES BOTH SIDES OF RY 09/27 AND ROAD IN APCH TO RY 09.
FOR CD CTC GULFPORT APCH AT 228-265-6151, WHEN APCH CLSD CTC HOUSTON ARTCC AT 281-230-5622.

Instrument Procedures

There are no published instrument procedures at 5MS2.

Some nearby airports with instrument procedures:

KHSA - Stennis International Airport (7 nm N)
KMJD - Picayune Municipal Airport (18 nm NW)
KASD - Slidell Airport (20 nm W)
KGPT - Gulfport-Biloxi International Airport (22 nm NE)
KBIX - Keesler Air Force Base (29 nm E)
 
Loc | Ops | Rwys | IFR | FBO | Links
Com | Nav | Svcs | Stats | Notes
Area around 5MS2 (Turkey Bayou Airpark)
 
Road maps at: MapQuest Bing Google
 
Aerial photo
No photo
 
Sectional chart

 
Airport distance calculator
Flying to Turkey Bayou Airpark? Find the distance to fly.

From to 5MS2

Sunrise and sunset
Times for 19-Apr-2021
 Local
(UTC-5)
 Zulu
(UTC)
Morning civil twilight06:0311:03
Sunrise06:2711:27
Sunset19:2700:27
Evening civil twilight19:5100:51

Current date and time
Zulu (UTC)  19-Apr-2021 10:19:45
Local (UTC-5)  19-Apr-2021 05:19:45
 
METAR
KHSA 
7nm N 
190050Z 33005KT 10SM CLR 17/19 A2994
KASD 
16nm W 
190953Z AUTO 34004KT 10SM SCT050 12/09 A3001 RMK AO2 SLP162 T01170094
KMJD 
18nm NW 
190935Z AUTO 00000KT 10SM SCT049 12/08 A3002 RMK AO2
TAF
KASD 
16nm W 
190520Z 1906/2006 00000KT P6SM SCT050
NOTAMs
Click for the latest NOTAMs
NOTAMs are issued by the DoD/FAA and will open in a separate window not controlled by AirNav.

 

 
 

Would you like to see your business listed on this page?

 If your business provides an interesting product or service to pilots, flight crews, aircraft, or users of the Turkey Bayou Airpark, you should consider listing it here.  To start the listing process, click on the button below
 
Add a business
 

Other Pages about Turkey Bayou Airpark

Update a link
 
Copyright © AirNav, LLC. All rights reserved. Privacy Policy  Contact